地図

経路データ

SID SEASON NUMBER BASIN SUBBASIN NAME ISO_TIME NATURE LAT LON WMO_WIND WMO_PRES WMO_AGENCY TRACK_TYPE DIST2LAND LANDFALL IFLAG USA_AGENCY USA_ATCF_ID USA_LAT USA_LON USA_RECORD USA_STATUS USA_WIND USA_PRES USA_SSHS USA_R34_NE USA_R34_SE USA_R34_SW USA_R34_NW USA_R50_NE USA_R50_SE USA_R50_SW USA_R50_NW USA_R64_NE USA_R64_SE USA_R64_SW USA_R64_NW USA_POCI USA_ROCI USA_RMW USA_EYE TOKYO_LAT TOKYO_LON TOKYO_GRADE TOKYO_WIND TOKYO_PRES TOKYO_R50_DIR TOKYO_R50_LONG TOKYO_R50_SHORT TOKYO_R30_DIR TOKYO_R30_LONG TOKYO_R30_SHORT TOKYO_LAND CMA_LAT CMA_LON CMA_CAT CMA_WIND CMA_PRES HKO_LAT HKO_LON HKO_CAT HKO_WIND HKO_PRES NEWDELHI_LAT NEWDELHI_LON NEWDELHI_GRADE NEWDELHI_WIND NEWDELHI_PRES NEWDELHI_CI NEWDELHI_DP NEWDELHI_POCI REUNION_LAT REUNION_LON REUNION_TYPE REUNION_WIND REUNION_PRES REUNION_TNUM REUNION_CI REUNION_RMW REUNION_R34_NE REUNION_R34_SE REUNION_R34_SW REUNION_R34_NW REUNION_R50_NE REUNION_R50_SE REUNION_R50_SW REUNION_R50_NW REUNION_R64_NE REUNION_R64_SE REUNION_R64_SW REUNION_R64_NW BOM_LAT BOM_LON BOM_TYPE BOM_WIND BOM_PRES BOM_TNUM BOM_CI BOM_RMW BOM_R34_NE BOM_R34_SE BOM_R34_SW BOM_R34_NW BOM_R50_NE BOM_R50_SE BOM_R50_SW BOM_R50_NW BOM_R64_NE BOM_R64_SE BOM_R64_SW BOM_R64_NW BOM_ROCI BOM_POCI BOM_EYE BOM_POS_METHOD BOM_PRES_METHOD NADI_LAT NADI_LON NADI_CAT NADI_WIND NADI_PRES WELLINGTON_LAT WELLINGTON_LON WELLINGTON_WIND WELLINGTON_PRES DS824_LAT DS824_LON DS824_STAGE DS824_WIND DS824_PRES TD9636_LAT TD9636_LON TD9636_STAGE TD9636_WIND TD9636_PRES TD9635_LAT TD9635_LON TD9635_WIND TD9635_PRES TD9635_ROCI NEUMANN_LAT NEUMANN_LON NEUMANN_CLASS NEUMANN_WIND NEUMANN_PRES MLC_LAT MLC_LON MLC_CLASS MLC_WIND MLC_PRES USA_GUST BOM_GUST BOM_GUST_PER REUNION_GUST REUNION_GUST_PER USA_SEAHGT USA_SEARAD_NE USA_SEARAD_SE USA_SEARAD_SW USA_SEARAD_NW STORM_SPEED STORM_DIR
1996254N14258 1996 82 EP MM FAUSTO 1996-09-10 00:00:00 TS 14.3000 -101.900 25 1010 hurdat_epa main 345 328 O_____________ hurdat_epa EP091996 14.3000 -101.900 TD 25 1010 -1 9 304
1996254N14258 1996 82 EP MM FAUSTO 1996-09-10 03:00:00 TS 14.5651 -102.300 main 328 322 P_____________ EP091996 14.5651 -102.300 TD 25 1009 -1 9 303
1996254N14258 1996 82 EP MM FAUSTO 1996-09-10 06:00:00 TS 14.8000 -102.700 25 1008 hurdat_epa main 327 324 O_____________ hurdat_epa EP091996 14.8000 -102.700 TD 25 1008 -1 9 299
1996254N14258 1996 82 EP MM FAUSTO 1996-09-10 09:00:00 TS 14.9924 -103.100 main 334 324 P_____________ EP091996 14.9924 -103.100 TD 27 1007 -1 9 297
1996254N14258 1996 82 EP MM FAUSTO 1996-09-10 12:00:00 TS 15.2000 -103.500 30 1006 hurdat_epa main 327 309 O_____________ hurdat_epa EP091996 15.2000 -103.500 TD 30 1006 -1 9 303
1996254N14258 1996 82 EP MM FAUSTO 1996-09-10 15:00:00 TS 15.4849 -103.900 main 309 292 P_____________ EP091996 15.4849 -103.900 TD 32 1005 -1 10 308
1996254N14258 1996 82 EP MM FAUSTO 1996-09-10 18:00:00 TS 15.8000 -104.300 35 1004 hurdat_epa main 292 272 O_____________ hurdat_epa EP091996 15.8000 -104.300 TS 35 1004 0 10 309
1996254N14258 1996 82 EP MM FAUSTO 1996-09-10 21:00:00 TS 16.0923 -104.678 main 277 265 P_____________ EP091996 16.0923 -104.678 TS 40 1002 0 10 308
1996254N14258 1996 82 EP MM FAUSTO 1996-09-11 00:00:00 TS 16.4000 -105.100 45 1000 hurdat_epa main 272 270 O_____________ hurdat_epa EP091996 16.4000 -105.100 TS 45 1000 0 11 306
1996254N14258 1996 82 EP MM FAUSTO 1996-09-11 03:00:00 TS 16.7425 -105.628 main 285 272 P_____________ EP091996 16.7425 -105.628 TS 50 995 0 13 304
1996254N14258 1996 82 EP MM FAUSTO 1996-09-11 06:00:00 TS 17.1000 -106.200 55 991 hurdat_epa main 277 274 O_____________ hurdat_epa EP091996 17.1000 -106.200 TS 55 991 0 13 303
1996254N14258 1996 82 EP MM FAUSTO 1996-09-11 09:00:00 TS 17.4575 -106.765 main 284 284 P_____________ EP091996 17.4575 -106.765 TS 60 986 0 13 304
1996254N14258 1996 82 EP MM FAUSTO 1996-09-11 12:00:00 TS 17.8000 -107.300 65 982 hurdat_epa main 299 299 O_____________ hurdat_epa EP091996 17.8000 -107.300 HU 65 982 1 12 304
1996254N14258 1996 82 EP MM FAUSTO 1996-09-11 15:00:00 TS 18.0999 -107.780 main 318 318 P_____________ EP091996 18.0999 -107.780 HU 72 977 1 10 305
1996254N14258 1996 82 EP MM FAUSTO 1996-09-11 18:00:00 TS 18.4000 -108.200 80 973 hurdat_epa main 335 335 O_____________ hurdat_epa EP091996 18.4000 -108.200 HU 80 973 1 10 311
1996254N14258 1996 82 EP MM FAUSTO 1996-09-11 21:00:00 TS 18.7424 -108.573 main 356 351 P_____________ EP091996 18.7424 -108.573 HU 87 966 2 10 317
1996254N14258 1996 82 EP MM FAUSTO 1996-09-12 00:00:00 TS 19.1000 -108.900 95 960 hurdat_epa main 365 365 O_____________ hurdat_epa EP091996 19.1000 -108.900 HU 95 960 2 9 319
1996254N14258 1996 82 EP MM FAUSTO 1996-09-12 03:00:00 TS 19.4499 -109.215 main 382 348 P_____________ EP091996 19.4499 -109.215 HU 100 957 3 9 321
1996254N14258 1996 82 EP MM FAUSTO 1996-09-12 06:00:00 TS 19.8000 -109.500 105 955 hurdat_epa main 348 313 O_____________ hurdat_epa EP091996 19.8000 -109.500 HU 105 955 3 9 324
1996254N14258 1996 82 EP MM FAUSTO 1996-09-12 09:00:00 TS 20.1575 -109.765 main 301 268 P_____________ EP091996 20.1575 -109.765 HU 105 955 3 8 326
1996254N14258 1996 82 EP MM FAUSTO 1996-09-12 12:00:00 TS 20.5000 -110.000 105 955 hurdat_epa main 268 235 O_____________ hurdat_epa EP091996 20.5000 -110.000 HU 105 955 3 8 327
1996254N14258 1996 82 EP MM FAUSTO 1996-09-12 15:00:00 TS 20.8150 -110.223 main 235 205 P_____________ EP091996 20.8150 -110.223 HU 102 956 3 7 328
1996254N14258 1996 82 EP MM FAUSTO 1996-09-12 18:00:00 TS 21.1000 -110.400 100 958 hurdat_epa main 205 186 O_____________ hurdat_epa EP091996 21.1000 -110.400 HU 100 958 3 6 333
1996254N14258 1996 82 EP MM FAUSTO 1996-09-12 21:00:00 TS 21.3575 -110.523 main 175 157 P_____________ EP091996 21.3575 -110.523 HU 95 960 2 5 340
1996254N14258 1996 82 EP MM FAUSTO 1996-09-13 00:00:00 TS 21.6000 -110.600 90 962 hurdat_epa main 157 137 O_____________ hurdat_epa EP091996 21.6000 -110.600 HU 90 962 2 5 345
1996254N14258 1996 82 EP MM FAUSTO 1996-09-13 03:00:00 TS 21.8500 -110.665 main 132 114 P_____________ EP091996 21.8500 -110.665 HU 87 965 2 5 349
1996254N14258 1996 82 EP MM FAUSTO 1996-09-13 06:00:00 TS 22.1000 -110.700 85 968 hurdat_epa main 114 98 O_____________ hurdat_epa EP091996 22.1000 -110.700 HU 85 968 2 5 356
1996254N14258 1996 82 EP MM FAUSTO 1996-09-13 09:00:00 TS 22.3350 -110.715 main 98 79 P_____________ EP091996 22.3350 -110.715 HU 82 970 1 5 2
1996254N14258 1996 82 EP MM FAUSTO 1996-09-13 12:00:00 TS 22.6000 -110.700 80 973 hurdat_epa main 79 69 O_____________ hurdat_epa EP091996 22.6000 -110.700 HU 80 973 1 6 4
1996254N14258 1996 82 EP MM FAUSTO 1996-09-13 15:00:00 TS 22.9108 -110.680 main 69 42 P_____________ EP091996 22.9138 -110.680 HU 77 975 1 7 7
1996254N14258 1996 82 EP MM FAUSTO 1996-09-13 18:00:00 TS 23.3000 -110.600 75 978 hurdat_epa main 42 11 O_____________ hurdat_epa EP091996 23.3000 -110.600 HU 75 978 1 9 13
1996254N14258 1996 82 EP MM FAUSTO 1996-09-13 20:00:00 TS 23.6081 -110.500 75 980 hurdat_epa main 11 0 O_____________ hurdat_epa EP091996 23.6000 -110.500 L HU 75 980 1 10 17
1996254N14258 1996 82 EP MM FAUSTO 1996-09-13 21:00:00 TS 23.7871 -110.438 main 0 0 P_____________ EP091996 23.7781 -110.438 HU 73 981 1 13 19
1996254N14258 1996 82 EP MM FAUSTO 1996-09-14 00:00:00 TS 24.4000 -110.200 70 985 hurdat_epa main 11 11 O_____________ hurdat_epa EP091996 24.4000 -110.200 HU 70 985 1 13 21
1996254N14258 1996 82 EP MM FAUSTO 1996-09-14 03:00:00 TS 25.0173 -109.914 main 83 20 P_____________ EP091996 25.0196 -109.913 HU 67 987 1 14 23
1996254N14258 1996 82 EP MM FAUSTO 1996-09-14 06:00:00 TS 25.7000 -109.600 65 990 hurdat_epa main 20 9 O_____________ hurdat_epa EP091996 25.7000 -109.600 L HU 65 990 1 16 17
1996254N14258 1996 82 EP MM FAUSTO 1996-09-14 09:00:00 TS 26.5437 -109.404 main 9 0 P_____________ EP091996 26.5437 -109.404 HU 55 995 0 17 19
1996254N14258 1996 82 EP MM FAUSTO 1996-09-14 12:00:00 TS 27.3000 -109.000 45 1000 hurdat_epa main 0 0 O_____________ hurdat_epa EP091996 27.3000 -109.000 TS 45 1000 0 17 43
1996254N14258 1996 82 EP MM FAUSTO 1996-09-14 15:00:00 TS 27.7505 -108.141 main 0 0 P_____________ EP091996 27.7505 -108.141 TS 37 1002 0 19 68
1996254N14258 1996 82 EP MM FAUSTO 1996-09-14 18:00:00 TS 28.0000 -107.000 30 1004 hurdat_epa main 0 O_____________ hurdat_epa EP091996 28.0000 -107.000 TD 30 1004 -1 21 76

IBTrACS Databaseについて

本データベースは、米国NOAAが公開する1842年以降の世界の熱帯低気圧のベストトラックデータアーカイブInternational Best Track Archive for Climate Stewardship (IBTrACS)を、ウェブで閲覧しやすい形式に変換したものです。

最終更新日:2021-10-21